createdAt,value
2017-03-11T00:04:55.419Z,0
2017-03-11T00:15:06.547Z,0
2017-03-11T00:25:17.745Z,0
2017-03-11T00:35:28.972Z,0
2017-03-11T00:45:40.146Z,0
2017-03-11T00:55:51.387Z,0
2017-03-11T01:06:02.655Z,0
2017-03-11T01:16:13.867Z,0
2017-03-11T01:26:25.213Z,0
2017-03-11T01:36:36.285Z,0
2017-03-11T01:46:47.395Z,0
2017-03-11T01:56:58.602Z,0
2017-03-11T02:07:09.872Z,0
2017-03-11T02:17:21.048Z,0
2017-03-11T02:27:32.322Z,0
2017-03-11T02:37:43.457Z,0
2017-03-11T02:47:54.653Z,0
2017-03-11T02:58:05.763Z,0
2017-03-11T03:08:17.056Z,0
2017-03-11T03:18:28.434Z,0
2017-03-11T03:28:40.054Z,0
2017-03-11T03:38:51.051Z,0
2017-03-11T03:49:02.370Z,0
2017-03-11T03:59:13.677Z,0
2017-03-11T04:09:24.933Z,0
2017-03-11T04:19:36.591Z,0
2017-03-11T04:29:47.590Z,0
2017-03-11T04:39:59.027Z,0
2017-03-11T04:50:10.312Z,0
2017-03-11T05:00:21.682Z,0
2017-03-11T05:10:33.064Z,0
2017-03-11T05:20:44.263Z,0
2017-03-11T05:30:55.579Z,0
2017-03-11T05:41:06.920Z,0
2017-03-11T05:51:18.296Z,15
2017-03-11T06:01:29.712Z,40
2017-03-11T06:11:41.201Z,70
2017-03-11T06:21:52.568Z,95
2017-03-11T06:32:04.004Z,155
2017-03-11T06:42:15.206Z,185
2017-03-11T06:52:26.354Z,260
2017-03-11T07:02:37.393Z,280
2017-03-11T07:12:48.489Z,595
2017-03-11T07:22:59.375Z,770
2017-03-11T07:33:09.714Z,910
2017-03-11T07:43:20.082Z,1030
2017-03-11T07:53:30.116Z,1230
2017-03-11T08:03:40.181Z,1455
2017-03-11T08:13:49.952Z,1580
2017-03-11T08:23:59.668Z,1625
2017-03-11T08:34:09.406Z,1825
2017-03-11T08:44:18.773Z,1820
2017-03-11T08:54:28.123Z,1970
2017-03-11T09:04:37.396Z,2135
2017-03-11T09:14:46.531Z,2160
2017-03-11T09:24:55.596Z,2385
2017-03-11T09:35:04.885Z,2315
2017-03-11T09:45:13.760Z,2370
2017-03-11T09:55:22.392Z,2400
2017-03-11T10:05:31.237Z,2295
2017-03-11T10:15:40.551Z,2140
2017-03-11T10:25:49.176Z,2510
2017-03-11T10:35:58.051Z,2605
2017-03-11T10:46:06.866Z,2610
2017-03-11T10:56:15.604Z,2165
2017-03-11T11:06:24.330Z,2220
2017-03-11T11:16:32.998Z,2795
2017-03-11T11:26:41.621Z,2370
2017-03-11T11:36:50.403Z,2505
2017-03-11T11:46:59.063Z,2650
2017-03-11T11:57:07.680Z,2515
2017-03-11T12:07:16.165Z,2175
2017-03-11T12:17:24.740Z,2020
2017-03-11T12:27:33.376Z,1630
2017-03-11T12:37:42.220Z,1735
2017-03-11T12:47:51.142Z,1655
2017-03-11T12:58:00.119Z,2245
2017-03-11T13:08:08.801Z,2405
2017-03-11T13:18:17.340Z,2370
2017-03-11T13:28:25.922Z,2325
2017-03-11T13:38:34.784Z,2050
2017-03-11T13:48:43.466Z,2120
2017-03-11T13:58:52.129Z,1775
2017-03-11T14:09:00.884Z,1790
2017-03-11T14:19:09.966Z,1390
2017-03-11T14:29:18.518Z,1500
2017-03-11T14:39:27.403Z,1445
2017-03-11T14:49:36.170Z,1330
2017-03-11T14:59:45.152Z,1195
2017-03-11T15:09:54.221Z,1005
2017-03-11T15:20:03.539Z,600
2017-03-11T15:30:12.710Z,760
2017-03-11T15:40:21.945Z,835
2017-03-11T15:50:31.072Z,610
2017-03-11T16:00:40.331Z,390
2017-03-11T16:10:49.816Z,305
2017-03-11T16:20:59.477Z,270
2017-03-11T16:31:09.166Z,235
2017-03-11T16:41:18.951Z,175
2017-03-11T16:51:29.032Z,120
2017-03-11T17:01:38.755Z,75
2017-03-11T17:11:48.830Z,45
2017-03-11T17:21:58.907Z,20
2017-03-11T17:32:09.246Z,5
2017-03-11T17:42:19.542Z,0
2017-03-11T17:52:29.839Z,0
2017-03-11T18:02:40.186Z,0
2017-03-11T18:12:50.587Z,0
2017-03-11T18:23:01.419Z,0
2017-03-11T18:33:11.564Z,0
2017-03-11T18:43:22.127Z,0
2017-03-11T18:53:32.723Z,0
2017-03-11T19:03:43.223Z,0
2017-03-11T19:13:53.866Z,0
2017-03-11T19:24:04.451Z,0
2017-03-11T19:34:15.055Z,0
2017-03-11T19:44:27.866Z,0
2017-03-11T19:54:36.336Z,0
2017-03-11T20:04:47.065Z,0
2017-03-11T20:14:57.799Z,0
2017-03-11T20:25:08.373Z,0
2017-03-11T20:35:19.085Z,0
2017-03-11T20:45:29.774Z,0
2017-03-11T20:55:40.451Z,0
2017-03-11T21:05:51.298Z,0
2017-03-11T21:16:02.077Z,0
2017-03-11T21:26:12.986Z,0
2017-03-11T21:36:23.928Z,0
2017-03-11T21:46:34.743Z,0
2017-03-11T21:56:45.498Z,0
2017-03-11T22:06:56.451Z,0
2017-03-11T22:17:07.349Z,0
2017-03-11T22:27:18.280Z,0
2017-03-11T22:37:29.182Z,0
2017-03-11T22:47:40.175Z,0
2017-03-11T22:57:51.161Z,0
2017-03-11T23:08:01.950Z,0
2017-03-11T23:18:12.921Z,0
2017-03-11T23:28:23.901Z,0
2017-03-11T23:38:34.868Z,0
2017-03-11T23:48:45.874Z,0
2017-03-11T23:58:56.874Z,0
